sensor_id;sensor_type;location;lat;lon;timestamp;temperature;humidity
10903;DHT22;5504;47.312;11.060;2024-03-23T00:56:04;7.10;80.60
10903;DHT22;5504;47.312;11.060;2024-03-23T00:58:30;7.10;80.40
10903;DHT22;5504;47.312;11.060;2024-03-23T01:00:56;7.10;80.10
10903;DHT22;5504;47.312;11.060;2024-03-23T01:03:22;7.10;80.50
10903;DHT22;5504;47.312;11.060;2024-03-23T01:05:47;7.10;80.50
10903;DHT22;5504;47.312;11.060;2024-03-23T01:08:14;7.10;80.90
10903;DHT22;5504;47.312;11.060;2024-03-23T01:10:40;7.10;80.30
10903;DHT22;5504;47.312;11.060;2024-03-23T01:13:06;7.20;80.00
10903;DHT22;5504;47.312;11.060;2024-03-23T01:15:32;7.30;79.40
10903;DHT22;5504;47.312;11.060;2024-03-23T01:17:57;7.20;79.70
10903;DHT22;5504;47.312;11.060;2024-03-23T01:20:23;7.30;79.10
10903;DHT22;5504;47.312;11.060;2024-03-23T01:22:49;7.20;79.10
10903;DHT22;5504;47.312;11.060;2024-03-23T01:25:14;7.00;79.70
10903;DHT22;5504;47.312;11.060;2024-03-23T01:27:40;7.00;79.80
10903;DHT22;5504;47.312;11.060;2024-03-23T01:30:06;6.90;79.40
10903;DHT22;5504;47.312;11.060;2024-03-23T01:32:33;6.80;79.10
10903;DHT22;5504;47.312;11.060;2024-03-23T01:34:58;6.70;80.10
10903;DHT22;5504;47.312;11.060;2024-03-23T01:37:24;6.60;80.60
10903;DHT22;5504;47.312;11.060;2024-03-23T01:39:50;6.70;80.50
10903;DHT22;5504;47.312;11.060;2024-03-23T01:42:16;6.80;79.70
10903;DHT22;5504;47.312;11.060;2024-03-23T01:44:42;6.70;79.40
10903;DHT22;5504;47.312;11.060;2024-03-23T01:47:07;6.50;80.30
10903;DHT22;5504;47.312;11.060;2024-03-23T01:49:33;6.50;80.20
10903;DHT22;5504;47.312;11.060;2024-03-23T01:51:59;6.30;80.90
10903;DHT22;5504;47.312;11.060;2024-03-23T01:54:25;6.30;81.40
10903;DHT22;5504;47.312;11.060;2024-03-23T01:56:51;6.40;80.80
10903;DHT22;5504;47.312;11.060;2024-03-23T01:59:17;6.40;80.30
10903;DHT22;5504;47.312;11.060;2024-03-23T02:01:43;6.60;79.40
10903;DHT22;5504;47.312;11.060;2024-03-23T02:04:09;6.50;79.70
10903;DHT22;5504;47.312;11.060;2024-03-23T02:06:35;6.30;80.60
10903;DHT22;5504;47.312;11.060;2024-03-23T02:09:01;6.10;80.80
10903;DHT22;5504;47.312;11.060;2024-03-23T02:11:26;5.90;81.40
10903;DHT22;5504;47.312;11.060;2024-03-23T02:13:52;5.80;81.80
10903;DHT22;5504;47.312;11.060;2024-03-23T02:16:18;5.90;82.30
10903;DHT22;5504;47.312;11.060;2024-03-23T02:18:44;5.90;81.60
10903;DHT22;5504;47.312;11.060;2024-03-23T02:21:10;5.90;82.20
10903;DHT22;5504;47.312;11.060;2024-03-23T02:23:35;6.00;81.80
10903;DHT22;5504;47.312;11.060;2024-03-23T02:26:01;6.10;81.50
10903;DHT22;5504;47.312;11.060;2024-03-23T02:28:27;6.10;80.10
10903;DHT22;5504;47.312;11.060;2024-03-23T02:30:53;6.00;80.00
10903;DHT22;5504;47.312;11.060;2024-03-23T02:33:19;6.10;80.00
10903;DHT22;5504;47.312;11.060;2024-03-23T02:35:46;5.80;79.50
10903;DHT22;5504;47.312;11.060;2024-03-23T02:38:12;5.70;79.80
10903;DHT22;5504;47.312;11.060;2024-03-23T02:40:38;5.60;80.70
10903;DHT22;5504;47.312;11.060;2024-03-23T02:43:04;5.80;80.80
10903;DHT22;5504;47.312;11.060;2024-03-23T02:45:30;5.80;80.20
10903;DHT22;5504;47.312;11.060;2024-03-23T02:47:56;5.90;80.50
10903;DHT22;5504;47.312;11.060;2024-03-23T02:50:22;6.00;80.10
10903;DHT22;5504;47.312;11.060;2024-03-23T02:52:48;5.90;79.80
10903;DHT22;5504;47.312;11.060;2024-03-23T02:55:14;5.80;79.50
10903;DHT22;5504;47.312;11.060;2024-03-23T02:57:40;6.00;79.20
10903;DHT22;5504;47.312;11.060;2024-03-23T03:00:07;5.80;79.80
10903;DHT22;5504;47.312;11.060;2024-03-23T03:02:33;5.80;80.20
10903;DHT22;5504;47.312;11.060;2024-03-23T03:04:59;5.70;80.20
10903;DHT22;5504;47.312;11.060;2024-03-23T03:07:25;5.70;80.50
10903;DHT22;5504;47.312;11.060;2024-03-23T03:09:51;5.70;80.40
10903;DHT22;5504;47.312;11.060;2024-03-23T03:12:16;5.60;80.40
10903;DHT22;5504;47.312;11.060;2024-03-23T03:14:42;5.60;80.60
10903;DHT22;5504;47.312;11.060;2024-03-23T03:17:08;5.60;80.40
10903;DHT22;5504;47.312;11.060;2024-03-23T03:19:34;5.80;79.30
10903;DHT22;5504;47.312;11.060;2024-03-23T03:21:59;5.80;78.90
10903;DHT22;5504;47.312;11.060;2024-03-23T03:24:25;5.80;78.90
10903;DHT22;5504;47.312;11.060;2024-03-23T03:26:51;5.90;78.40
10903;DHT22;5504;47.312;11.060;2024-03-23T03:29:17;5.60;79.00
10903;DHT22;5504;47.312;11.060;2024-03-23T03:31:43;5.50;79.70
10903;DHT22;5504;47.312;11.060;2024-03-23T03:34:09;5.60;79.30
10903;DHT22;5504;47.312;11.060;2024-03-23T03:36:35;5.60;79.70
10903;DHT22;5504;47.312;11.060;2024-03-23T03:39:01;5.60;79.80
10903;DHT22;5504;47.312;11.060;2024-03-23T03:41:28;5.50;79.20
10903;DHT22;5504;47.312;11.060;2024-03-23T03:43:54;5.40;79.50
10903;DHT22;5504;47.312;11.060;2024-03-23T03:46:21;5.40;79.90
10903;DHT22;5504;47.312;11.060;2024-03-23T03:48:46;5.40;80.00
10903;DHT22;5504;47.312;11.060;2024-03-23T03:51:14;5.30;80.00
10903;DHT22;5504;47.312;11.060;2024-03-23T03:53:39;5.50;79.70
10903;DHT22;5504;47.312;11.060;2024-03-23T03:56:05;5.50;79.60
10903;DHT22;5504;47.312;11.060;2024-03-23T03:58:32;5.30;79.60
10903;DHT22;5504;47.312;11.060;2024-03-23T04:00:57;5.20;79.50
10903;DHT22;5504;47.312;11.060;2024-03-23T04:03:23;5.30;79.70
10903;DHT22;5504;47.312;11.060;2024-03-23T04:05:55;5.30;79.50
10903;DHT22;5504;47.312;11.060;2024-03-23T04:08:21;5.40;79.40
10903;DHT22;5504;47.312;11.060;2024-03-23T04:10:47;5.60;78.90
10903;DHT22;5504;47.312;11.060;2024-03-23T04:13:13;5.60;78.50
10903;DHT22;5504;47.312;11.060;2024-03-23T04:15:40;5.60;77.70
10903;DHT22;5504;47.312;11.060;2024-03-23T04:18:06;5.50;78.50
10903;DHT22;5504;47.312;11.060;2024-03-23T04:20:32;5.60;78.60
10903;DHT22;5504;47.312;11.060;2024-03-23T04:22:59;5.30;78.70
10903;DHT22;5504;47.312;11.060;2024-03-23T04:25:24;5.10;79.50
10903;DHT22;5504;47.312;11.060;2024-03-23T04:27:50;5.10;80.20
10903;DHT22;5504;47.312;11.060;2024-03-23T04:30:17;5.30;79.60
10903;DHT22;5504;47.312;11.060;2024-03-23T04:32:43;5.40;78.80
10903;DHT22;5504;47.312;11.060;2024-03-23T04:35:09;5.30;79.00
10903;DHT22;5504;47.312;11.060;2024-03-23T04:37:39;5.20;79.30
10903;DHT22;5504;47.312;11.060;2024-03-23T04:40:07;5.10;79.20
10903;DHT22;5504;47.312;11.060;2024-03-23T04:42:33;4.80;79.30
10903;DHT22;5504;47.312;11.060;2024-03-23T04:45:00;4.80;80.40
10903;DHT22;5504;47.312;11.060;2024-03-23T04:47:25;4.90;80.30
10903;DHT22;5504;47.312;11.060;2024-03-23T04:49:51;5.00;79.60
10903;DHT22;5504;47.312;11.060;2024-03-23T04:52:18;4.90;79.40
10903;DHT22;5504;47.312;11.060;2024-03-23T04:54:44;4.70;79.80
10903;DHT22;5504;47.312;11.060;2024-03-23T04:57:11;4.70;80.20
10903;DHT22;5504;47.312;11.060;2024-03-23T04:59:36;4.90;79.80
10903;DHT22;5504;47.312;11.060;2024-03-23T05:02:02;4.80;79.60
10903;DHT22;5504;47.312;11.060;2024-03-23T05:04:28;4.80;80.10
10903;DHT22;5504;47.312;11.060;2024-03-23T05:06:54;4.90;79.90
10903;DHT22;5504;47.312;11.060;2024-03-23T05:09:20;4.70;79.10
10903;DHT22;5504;47.312;11.060;2024-03-23T05:11:46;4.50;80.00
10903;DHT22;5504;47.312;11.060;2024-03-23T05:14:13;4.30;80.30
10903;DHT22;5504;47.312;11.060;2024-03-23T05:16:41;4.40;81.00
10903;DHT22;5504;47.312;11.060;2024-03-23T05:19:07;4.40;81.30
10903;DHT22;5504;47.312;11.060;2024-03-23T05:21:33;4.60;80.90
10903;DHT22;5504;47.312;11.060;2024-03-23T05:23:59;4.50;80.40
10903;DHT22;5504;47.312;11.060;2024-03-23T05:26:25;4.50;80.50
10903;DHT22;5504;47.312;11.060;2024-03-23T05:28:50;4.50;80.10
10903;DHT22;5504;47.312;11.060;2024-03-23T05:31:26;4.50;80.90
10903;DHT22;5504;47.312;11.060;2024-03-23T05:33:52;4.50;81.40
10903;DHT22;5504;47.312;11.060;2024-03-23T05:36:18;4.70;80.70
10903;DHT22;5504;47.312;11.060;2024-03-23T05:38:44;4.80;80.00
10903;DHT22;5504;47.312;11.060;2024-03-23T05:41:10;4.80;79.30
10903;DHT22;5504;47.312;11.060;2024-03-23T05:43:36;4.60;79.30
10903;DHT22;5504;47.312;11.060;2024-03-23T05:46:01;4.50;80.20
10903;DHT22;5504;47.312;11.060;2024-03-23T05:48:28;4.60;79.80
10903;DHT22;5504;47.312;11.060;2024-03-23T05:50:55;4.50;80.40
10903;DHT22;5504;47.312;11.060;2024-03-23T05:53:21;4.60;81.30
10903;DHT22;5504;47.312;11.060;2024-03-23T05:55:47;4.70;81.50
10903;DHT22;5504;47.312;11.060;2024-03-23T05:58:15;4.70;81.20
10903;DHT22;5504;47.312;11.060;2024-03-23T06:00:42;5.00;80.50
10903;DHT22;5504;47.312;11.060;2024-03-23T06:03:08;5.20;80.10
10903;DHT22;5504;47.312;11.060;2024-03-23T06:05:34;5.30;79.60
10903;DHT22;5504;47.312;11.060;2024-03-23T06:08:00;5.40;78.30
10903;DHT22;5504;47.312;11.060;2024-03-23T06:10:25;5.70;78.90
10903;DHT22;5504;47.312;11.060;2024-03-23T06:12:51;6.00;78.30
10903;DHT22;5504;47.312;11.060;2024-03-23T06:15:21;6.40;78.20
10903;DHT22;5504;47.312;11.060;2024-03-23T06:17:48;6.70;76.80
10903;DHT22;5504;47.312;11.060;2024-03-23T06:20:14;6.90;76.30
10903;DHT22;5504;47.312;11.060;2024-03-23T06:22:40;7.00;76.00
10903;DHT22;5504;47.312;11.060;2024-03-23T06:25:06;7.20;75.00
10903;DHT22;5504;47.312;11.060;2024-03-23T06:27:32;7.40;75.30
10903;DHT22;5504;47.312;11.060;2024-03-23T06:29:59;7.60;74.90
10903;DHT22;5504;47.312;11.060;2024-03-23T06:32:25;7.90;74.30
10903;DHT22;5504;47.312;11.060;2024-03-23T06:34:50;8.20;73.20
10903;DHT22;5504;47.312;11.060;2024-03-23T06:37:16;8.40;72.60
10903;DHT22;5504;47.312;11.060;2024-03-23T06:39:42;8.70;72.50
10903;DHT22;5504;47.312;11.060;2024-03-23T06:42:08;8.80;71.50
10903;DHT22;5504;47.312;11.060;2024-03-23T06:44:34;9.00;70.40
10903;DHT22;5504;47.312;11.060;2024-03-23T06:47:00;9.30;70.50
10903;DHT22;5504;47.312;11.060;2024-03-23T06:49:25;9.60;69.90
10903;DHT22;5504;47.312;11.060;2024-03-23T06:51:51;10.00;71.10
10903;DHT22;5504;47.312;11.060;2024-03-23T06:54:18;10.40;70.40
10903;DHT22;5504;47.312;11.060;2024-03-23T06:56:44;10.50;68.00
10903;DHT22;5504;47.312;11.060;2024-03-23T06:59:10;11.20;69.20
10903;DHT22;5504;47.312;11.060;2024-03-23T07:01:36;11.80;68.00
10903;DHT22;5504;47.312;11.060;2024-03-23T07:04:02;12.20;65.20
10903;DHT22;5504;47.312;11.060;2024-03-23T07:06:29;12.20;58.90
10903;DHT22;5504;47.312;11.060;2024-03-23T07:08:55;12.60;60.80
10903;DHT22;5504;47.312;11.060;2024-03-23T07:11:22;12.80;59.70
10903;DHT22;5504;47.312;11.060;2024-03-23T07:13:52;13.20;58.60
10903;DHT22;5504;47.312;11.060;2024-03-23T07:16:20;13.40;58.40
10903;DHT22;5504;47.312;11.060;2024-03-23T07:18:46;13.20;57.40
10903;DHT22;5504;47.312;11.060;2024-03-23T07:21:12;13.80;57.90
10903;DHT22;5504;47.312;11.060;2024-03-23T07:23:37;13.80;57.10
10903;DHT22;5504;47.312;11.060;2024-03-23T07:26:05;14.10;57.30
10903;DHT22;5504;47.312;11.060;2024-03-23T07:28:34;14.20;56.00
10903;DHT22;5504;47.312;11.060;2024-03-23T07:31:08;13.90;56.00
10903;DHT22;5504;47.312;11.060;2024-03-23T07:33:37;14.60;55.80
10903;DHT22;5504;47.312;11.060;2024-03-23T07:36:04;14.50;55.10
10903;DHT22;5504;47.312;11.060;2024-03-23T07:38:31;14.70;55.50
10903;DHT22;5504;47.312;11.060;2024-03-23T07:41:09;14.90;55.00
10903;DHT22;5504;47.312;11.060;2024-03-23T07:43:39;15.00;55.10
10903;DHT22;5504;47.312;11.060;2024-03-23T07:46:06;14.70;53.80
10903;DHT22;5504;47.312;11.060;2024-03-23T07:48:33;14.40;52.90
10903;DHT22;5504;47.312;11.060;2024-03-23T07:51:02;14.90;53.40
10903;DHT22;5504;47.312;11.060;2024-03-23T07:53:29;15.80;54.40
10903;DHT22;5504;47.312;11.060;2024-03-23T07:56:01;15.60;53.90
10903;DHT22;5504;47.312;11.060;2024-03-23T07:58:27;16.70;53.50
10903;DHT22;5504;47.312;11.060;2024-03-23T08:01:02;17.20;51.50
10903;DHT22;5504;47.312;11.060;2024-03-23T08:03:29;17.50;52.20
10903;DHT22;5504;47.312;11.060;2024-03-23T08:05:55;17.10;50.60
10903;DHT22;5504;47.312;11.060;2024-03-23T08:08:21;17.80;52.30
10903;DHT22;5504;47.312;11.060;2024-03-23T08:10:51;18.20;50.10
10903;DHT22;5504;47.312;11.060;2024-03-23T08:13:17;18.50;48.00
10903;DHT22;5504;47.312;11.060;2024-03-23T08:15:43;18.00;46.40
10903;DHT22;5504;47.312;11.060;2024-03-23T08:18:10;17.30;46.80
10903;DHT22;5504;47.312;11.060;2024-03-23T08:20:36;17.40;48.60
10903;DHT22;5504;47.312;11.060;2024-03-23T08:23:02;17.00;47.10
10903;DHT22;5504;47.312;11.060;2024-03-23T08:25:30;15.70;48.70
10903;DHT22;5504;47.312;11.060;2024-03-23T08:27:56;14.70;50.50
10903;DHT22;5504;47.312;11.060;2024-03-23T08:30:21;14.10;52.10
10903;DHT22;5504;47.312;11.060;2024-03-23T08:32:48;14.50;53.60
10903;DHT22;5504;47.312;11.060;2024-03-23T08:35:14;16.00;52.40
10903;DHT22;5504;47.312;11.060;2024-03-23T08:37:39;16.90;49.20
10903;DHT22;5504;47.312;11.060;2024-03-23T08:40:06;17.80;48.00
10903;DHT22;5504;47.312;11.060;2024-03-23T08:42:32;17.60;46.10
10903;DHT22;5504;47.312;11.060;2024-03-23T08:44:57;18.20;46.40
10903;DHT22;5504;47.312;11.060;2024-03-23T08:47:23;19.00;46.20
10903;DHT22;5504;47.312;11.060;2024-03-23T08:49:49;18.90;45.30
10903;DHT22;5504;47.312;11.060;2024-03-23T08:52:15;18.90;46.60
10903;DHT22;5504;47.312;11.060;2024-03-23T08:54:40;19.20;45.70
10903;DHT22;5504;47.312;11.060;2024-03-23T08:57:07;19.20;44.20
10903;DHT22;5504;47.312;11.060;2024-03-23T08:59:33;19.20;44.60
10903;DHT22;5504;47.312;11.060;2024-03-23T09:01:59;19.60;44.70
10903;DHT22;5504;47.312;11.060;2024-03-23T09:04:24;20.20;44.40
10903;DHT22;5504;47.312;11.060;2024-03-23T09:06:50;19.90;43.50
10903;DHT22;5504;47.312;11.060;2024-03-23T09:09:16;19.90;43.00
10903;DHT22;5504;47.312;11.060;2024-03-23T09:11:42;20.60;43.90
10903;DHT22;5504;47.312;11.060;2024-03-23T09:14:08;20.70;44.00
10903;DHT22;5504;47.312;11.060;2024-03-23T09:16:34;19.80;42.90
10903;DHT22;5504;47.312;11.060;2024-03-23T09:19:00;19.70;43.80
10903;DHT22;5504;47.312;11.060;2024-03-23T09:21:26;19.50;45.30
10903;DHT22;5504;47.312;11.060;2024-03-23T09:23:52;19.20;46.50
10903;DHT22;5504;47.312;11.060;2024-03-23T09:26:18;18.60;46.40
10903;DHT22;5504;47.312;11.060;2024-03-23T09:28:43;18.20;45.30
10903;DHT22;5504;47.312;11.060;2024-03-23T09:31:09;18.30;45.20
10903;DHT22;5504;47.312;11.060;2024-03-23T09:33:40;19.00;46.30
10903;DHT22;5504;47.312;11.060;2024-03-23T09:36:07;19.40;45.80
10903;DHT22;5504;47.312;11.060;2024-03-23T09:38:33;19.90;44.20
10903;DHT22;5504;47.312;11.060;2024-03-23T09:40:59;20.50;44.40
10903;DHT22;5504;47.312;11.060;2024-03-23T09:43:25;20.80;42.90
10903;DHT22;5504;47.312;11.060;2024-03-23T09:45:51;20.90;41.90
10903;DHT22;5504;47.312;11.060;2024-03-23T09:48:18;21.20;42.00
10903;DHT22;5504;47.312;11.060;2024-03-23T09:50:45;21.10;42.30
10903;DHT22;5504;47.312;11.060;2024-03-23T09:53:12;20.70;43.00
10903;DHT22;5504;47.312;11.060;2024-03-23T09:55:39;20.60;44.50
10903;DHT22;5504;47.312;11.060;2024-03-23T09:58:06;20.10;44.40
10903;DHT22;5504;47.312;11.060;2024-03-23T10:00:33;19.40;44.10
10903;DHT22;5504;47.312;11.060;2024-03-23T10:03:00;19.40;45.30
10903;DHT22;5504;47.312;11.060;2024-03-23T10:05:29;19.50;47.00
10903;DHT22;5504;47.312;11.060;2024-03-23T10:07:57;19.90;46.10
10903;DHT22;5504;47.312;11.060;2024-03-23T10:10:25;20.00;45.00
10903;DHT22;5504;47.312;11.060;2024-03-23T10:12:51;19.30;44.60
10903;DHT22;5504;47.312;11.060;2024-03-23T10:15:23;19.00;46.20
10903;DHT22;5504;47.312;11.060;2024-03-23T10:17:49;18.70;47.00
10903;DHT22;5504;47.312;11.060;2024-03-23T10:20:22;18.50;46.60
10903;DHT22;5504;47.312;11.060;2024-03-23T10:22:49;18.40;47.40
10903;DHT22;5504;47.312;11.060;2024-03-23T10:25:16;17.30;48.90
10903;DHT22;5504;47.312;11.060;2024-03-23T10:27:41;17.30;50.80
10903;DHT22;5504;47.312;11.060;2024-03-23T10:30:15;17.00;51.60
10903;DHT22;5504;47.312;11.060;2024-03-23T10:32:41;16.20;52.50
10903;DHT22;5504;47.312;11.060;2024-03-23T10:35:20;15.90;53.20
10903;DHT22;5504;47.312;11.060;2024-03-23T10:37:48;15.70;53.80
10903;DHT22;5504;47.312;11.060;2024-03-23T10:40:18;16.30;55.30
10903;DHT22;5504;47.312;11.060;2024-03-23T10:42:46;16.20;51.50
10903;DHT22;5504;47.312;11.060;2024-03-23T10:45:12;16.30;52.00
10903;DHT22;5504;47.312;11.060;2024-03-23T10:47:38;15.60;51.10
10903;DHT22;5504;47.312;11.060;2024-03-23T10:50:04;15.80;51.00
10903;DHT22;5504;47.312;11.060;2024-03-23T10:52:33;15.80;53.10
10903;DHT22;5504;47.312;11.060;2024-03-23T10:55:03;15.50;53.20
10903;DHT22;5504;47.312;11.060;2024-03-23T10:57:41;15.60;54.20
10903;DHT22;5504;47.312;11.060;2024-03-23T11:00:08;15.70;52.90
10903;DHT22;5504;47.312;11.060;2024-03-23T11:02:36;15.90;52.00
10903;DHT22;5504;47.312;11.060;2024-03-23T11:05:01;16.20;52.60
10903;DHT22;5504;47.312;11.060;2024-03-23T11:09:54;16.10;53.90
10903;DHT22;5504;47.312;11.060;2024-03-23T11:14:59;15.10;56.40
10903;DHT22;5504;47.312;11.060;2024-03-23T11:17:26;14.60;57.60
10903;DHT22;5504;47.312;11.060;2024-03-23T11:19:57;14.30;57.90
10903;DHT22;5504;47.312;11.060;2024-03-23T11:25:17;13.40;62.30
10903;DHT22;5504;47.312;11.060;2024-03-23T11:27:44;13.00;65.40
10903;DHT22;5504;47.312;11.060;2024-03-23T11:30:18;12.60;68.30
10903;DHT22;5504;47.312;11.060;2024-03-23T11:32:46;12.50;70.40
10903;DHT22;5504;47.312;11.060;2024-03-23T11:35:32;12.60;71.60
10903;DHT22;5504;47.312;11.060;2024-03-23T11:38:09;12.80;74.30
10903;DHT22;5504;47.312;11.060;2024-03-23T11:40:37;12.50;74.30
10903;DHT22;5504;47.312;11.060;2024-03-23T11:43:05;12.30;72.30
10903;DHT22;5504;47.312;11.060;2024-03-23T11:45:38;12.20;72.80
10903;DHT22;5504;47.312;11.060;2024-03-23T11:48:25;11.60;71.20
10903;DHT22;5504;47.312;11.060;2024-03-23T11:50:57;11.50;73.00
10903;DHT22;5504;47.312;11.060;2024-03-23T11:53:25;11.40;79.40
10903;DHT22;5504;47.312;11.060;2024-03-23T11:55:59;11.70;77.80
10903;DHT22;5504;47.312;11.060;2024-03-23T11:58:27;11.50;72.50
10903;DHT22;5504;47.312;11.060;2024-03-23T12:01:03;11.80;76.00
10903;DHT22;5504;47.312;11.060;2024-03-23T12:03:30;11.00;71.50
10903;DHT22;5504;47.312;11.060;2024-03-23T12:06:02;11.30;75.30
10903;DHT22;5504;47.312;11.060;2024-03-23T12:08:31;11.30;76.60
10903;DHT22;5504;47.312;11.060;2024-03-23T12:11:12;11.10;70.80
10903;DHT22;5504;47.312;11.060;2024-03-23T12:13:41;11.20;69.30
10903;DHT22;5504;47.312;11.060;2024-03-23T12:18:41;11.60;69.40
10903;DHT22;5504;47.312;11.060;2024-03-23T12:21:07;11.60;68.90
10903;DHT22;5504;47.312;11.060;2024-03-23T12:23:34;11.60;67.70
10903;DHT22;5504;47.312;11.060;2024-03-23T12:26:00;11.60;67.60
10903;DHT22;5504;47.312;11.060;2024-03-23T12:28:26;11.80;69.60
10903;DHT22;5504;47.312;11.060;2024-03-23T12:30:52;11.90;65.50
10903;DHT22;5504;47.312;11.060;2024-03-23T12:33:18;11.70;61.20
10903;DHT22;5504;47.312;11.060;2024-03-23T12:35:44;11.70;59.80
10903;DHT22;5504;47.312;11.060;2024-03-23T12:38:10;11.70;62.90
10903;DHT22;5504;47.312;11.060;2024-03-23T12:40:36;11.60;60.60
10903;DHT22;5504;47.312;11.060;2024-03-23T12:43:01;11.40;60.80
10903;DHT22;5504;47.312;11.060;2024-03-23T12:45:27;10.70;60.80
10903;DHT22;5504;47.312;11.060;2024-03-23T12:47:53;10.60;64.00
10903;DHT22;5504;47.312;11.060;2024-03-23T12:50:20;10.20;64.10
10903;DHT22;5504;47.312;11.060;2024-03-23T12:52:45;10.10;63.40
10903;DHT22;5504;47.312;11.060;2024-03-23T12:55:11;9.80;62.50
10903;DHT22;5504;47.312;11.060;2024-03-23T12:57:37;10.00;62.50
10903;DHT22;5504;47.312;11.060;2024-03-23T13:00:03;9.80;60.20
10903;DHT22;5504;47.312;11.060;2024-03-23T13:02:30;10.00;60.50
10903;DHT22;5504;47.312;11.060;2024-03-23T13:04:56;9.80;59.20
10903;DHT22;5504;47.312;11.060;2024-03-23T13:07:22;9.80;61.10
10903;DHT22;5504;47.312;11.060;2024-03-23T13:09:52;9.90;60.70
10903;DHT22;5504;47.312;11.060;2024-03-23T13:12:19;9.60;63.30
10903;DHT22;5504;47.312;11.060;2024-03-23T13:14:46;9.20;65.50
10903;DHT22;5504;47.312;11.060;2024-03-23T13:17:12;8.80;67.00
10903;DHT22;5504;47.312;11.060;2024-03-23T13:19:38;8.80;67.60
10903;DHT22;5504;47.312;11.060;2024-03-23T13:22:04;8.70;68.20
10903;DHT22;5504;47.312;11.060;2024-03-23T13:24:30;8.90;67.40
10903;DHT22;5504;47.312;11.060;2024-03-23T13:26:57;9.00;67.00
10903;DHT22;5504;47.312;11.060;2024-03-23T13:29:23;9.10;68.00
10903;DHT22;5504;47.312;11.060;2024-03-23T13:31:50;9.00;69.10
10903;DHT22;5504;47.312;11.060;2024-03-23T13:34:17;9.30;69.20
10903;DHT22;5504;47.312;11.060;2024-03-23T13:36:47;9.60;67.40
10903;DHT22;5504;47.312;11.060;2024-03-23T13:39:13;9.60;66.60
10903;DHT22;5504;47.312;11.060;2024-03-23T13:41:42;9.30;69.80
10903;DHT22;5504;47.312;11.060;2024-03-23T13:44:08;9.20;70.80
10903;DHT22;5504;47.312;11.060;2024-03-23T13:46:36;9.20;71.00
10903;DHT22;5504;47.312;11.060;2024-03-23T13:49:02;9.10;68.60
10903;DHT22;5504;47.312;11.060;2024-03-23T13:51:28;9.20;64.60
10903;DHT22;5504;47.312;11.060;2024-03-23T13:53:54;9.30;61.80
10903;DHT22;5504;47.312;11.060;2024-03-23T13:56:25;9.60;61.80
10903;DHT22;5504;47.312;11.060;2024-03-23T13:58:51;9.70;61.10
10903;DHT22;5504;47.312;11.060;2024-03-23T14:01:17;9.70;61.70
10903;DHT22;5504;47.312;11.060;2024-03-23T14:03:43;9.60;62.20
10903;DHT22;5504;47.312;11.060;2024-03-23T14:06:10;9.40;61.90
10903;DHT22;5504;47.312;11.060;2024-03-23T14:08:37;9.40;62.60
10903;DHT22;5504;47.312;11.060;2024-03-23T14:11:09;9.50;63.60
10903;DHT22;5504;47.312;11.060;2024-03-23T14:13:35;9.70;64.10
10903;DHT22;5504;47.312;11.060;2024-03-23T14:16:01;9.60;63.90
10903;DHT22;5504;47.312;11.060;2024-03-23T14:18:27;9.50;63.90
10903;DHT22;5504;47.312;11.060;2024-03-23T14:20:57;8.50;66.90
10903;DHT22;5504;47.312;11.060;2024-03-23T14:23:28;8.90;66.50
10903;DHT22;5504;47.312;11.060;2024-03-23T14:26:00;9.00;65.80
10903;DHT22;5504;47.312;11.060;2024-03-23T14:28:26;9.30;65.60
10903;DHT22;5504;47.312;11.060;2024-03-23T14:30:54;9.90;64.80
10903;DHT22;5504;47.312;11.060;2024-03-23T14:33:20;10.20;64.70
10903;DHT22;5504;47.312;11.060;2024-03-23T14:35:53;9.70;63.00
10903;DHT22;5504;47.312;11.060;2024-03-23T14:38:19;9.60;63.80
10903;DHT22;5504;47.312;11.060;2024-03-23T14:40:46;10.00;61.90
10903;DHT22;5504;47.312;11.060;2024-03-23T14:43:12;10.50;62.30
10903;DHT22;5504;47.312;11.060;2024-03-23T14:48:47;10.30;59.30
10903;DHT22;5504;47.312;11.060;2024-03-23T14:51:13;10.40;63.10
10903;DHT22;5504;47.312;11.060;2024-03-23T14:53:40;10.70;61.50
10903;DHT22;5504;47.312;11.060;2024-03-23T14:56:08;10.90;59.20
10903;DHT22;5504;47.312;11.060;2024-03-23T14:58:37;10.80;59.50
10903;DHT22;5504;47.312;11.060;2024-03-23T15:01:07;11.20;60.00
10903;DHT22;5504;47.312;11.060;2024-03-23T15:03:39;11.60;60.40
10903;DHT22;5504;47.312;11.060;2024-03-23T15:06:05;11.80;58.10
10903;DHT22;5504;47.312;11.060;2024-03-23T15:08:31;11.90;57.40
10903;DHT22;5504;47.312;11.060;2024-03-23T15:11:01;11.90;58.00
10903;DHT22;5504;47.312;11.060;2024-03-23T15:13:34;11.50;55.50
10903;DHT22;5504;47.312;11.060;2024-03-23T15:16:01;11.60;58.00
10903;DHT22;5504;47.312;11.060;2024-03-23T15:18:29;11.50;56.60
10903;DHT22;5504;47.312;11.060;2024-03-23T15:20:59;11.70;57.30
10903;DHT22;5504;47.312;11.060;2024-03-23T15:23:28;11.60;57.30
10903;DHT22;5504;47.312;11.060;2024-03-23T15:26:03;11.50;58.30
10903;DHT22;5504;47.312;11.060;2024-03-23T15:28:30;11.50;57.90
10903;DHT22;5504;47.312;11.060;2024-03-23T15:31:14;11.70;57.80
10903;DHT22;5504;47.312;11.060;2024-03-23T15:33:40;12.00;57.60
10903;DHT22;5504;47.312;11.060;2024-03-23T15:36:06;12.30;58.10
10903;DHT22;5504;47.312;11.060;2024-03-23T15:38:32;12.50;57.20
10903;DHT22;5504;47.312;11.060;2024-03-23T15:40:58;12.60;57.10
10903;DHT22;5504;47.312;11.060;2024-03-23T15:43:24;12.30;55.60
10903;DHT22;5504;47.312;11.060;2024-03-23T15:45:56;12.20;55.30
10903;DHT22;5504;47.312;11.060;2024-03-23T15:48:23;12.30;56.30
10903;DHT22;5504;47.312;11.060;2024-03-23T15:50:56;12.20;55.80
10903;DHT22;5504;47.312;11.060;2024-03-23T15:53:24;12.50;57.10
10903;DHT22;5504;47.312;11.060;2024-03-23T15:55:56;12.50;56.70
10903;DHT22;5504;47.312;11.060;2024-03-23T15:58:23;12.70;55.00
10903;DHT22;5504;47.312;11.060;2024-03-23T16:00:59;12.70;53.70
10903;DHT22;5504;47.312;11.060;2024-03-23T16:03:25;12.80;53.70
10903;DHT22;5504;47.312;11.060;2024-03-23T16:05:58;12.90;54.20
10903;DHT22;5504;47.312;11.060;2024-03-23T16:08:24;12.90;53.50
10903;DHT22;5504;47.312;11.060;2024-03-23T16:10:51;12.80;52.50
10903;DHT22;5504;47.312;11.060;2024-03-23T16:13:17;12.80;54.00
10903;DHT22;5504;47.312;11.060;2024-03-23T16:15:54;12.60;53.00
10903;DHT22;5504;47.312;11.060;2024-03-23T16:18:20;12.70;53.30
10903;DHT22;5504;47.312;11.060;2024-03-23T16:20:54;12.50;51.30
10903;DHT22;5504;47.312;11.060;2024-03-23T16:23:20;12.50;53.30
10903;DHT22;5504;47.312;11.060;2024-03-23T16:25:47;12.10;54.20
10903;DHT22;5504;47.312;11.060;2024-03-23T16:33:21;10.80;51.50
10903;DHT22;5504;47.312;11.060;2024-03-23T16:36:00;10.80;60.80
10903;DHT22;5504;47.312;11.060;2024-03-23T16:38:27;10.90;65.20
10903;DHT22;5504;47.312;11.060;2024-03-23T16:40:57;10.60;66.50
10903;DHT22;5504;47.312;11.060;2024-03-23T16:43:24;10.60;67.10
10903;DHT22;5504;47.312;11.060;2024-03-23T16:45:58;10.30;68.30
10903;DHT22;5504;47.312;11.060;2024-03-23T16:48:26;10.00;69.90
10903;DHT22;5504;47.312;11.060;2024-03-23T16:50:52;9.90;70.70